createdAt,value
2024-05-09T00:01:56.337Z,99694.22
2024-05-09T00:06:59.134Z,99695.92
2024-05-09T00:12:02.401Z,99707.27
2024-05-09T00:17:05.428Z,99710.05
2024-05-09T00:22:10.198Z,99706.98
2024-05-09T00:27:13.506Z,99713.67
2024-05-09T00:32:16.463Z,99712.21
2024-05-09T00:37:19.342Z,99714.88
2024-05-09T00:42:22.420Z,99712.10
2024-05-09T00:47:25.582Z,99713.84
2024-05-09T00:52:28.988Z,99712.19
2024-05-09T00:57:32.452Z,99712.44
2024-05-09T01:02:35.820Z,99711.66
2024-05-09T01:07:38.956Z,99708.80
2024-05-09T01:12:41.778Z,99713.06
2024-05-09T01:17:46.139Z,99716.98
2024-05-09T01:22:50.538Z,99718.99
2024-05-09T01:27:53.347Z,99724.56
2024-05-09T01:32:56.847Z,99721.05
2024-05-09T01:38:00.239Z,99724.27
2024-05-09T01:43:03.511Z,99719.30
2024-05-09T01:48:07.050Z,99718.73
2024-05-09T01:53:14.923Z,99716.63
2024-05-09T01:58:18.265Z,99711.27
2024-05-09T02:03:21.747Z,99715.30
2024-05-09T02:08:24.736Z,99715.13
2024-05-09T02:13:27.731Z,99715.09
2024-05-09T02:18:30.903Z,99713.48
2024-05-09T02:23:33.954Z,99718.08
2024-05-09T02:28:36.866Z,99717.27
2024-05-09T02:33:39.857Z,99725.02
2024-05-09T02:38:43.070Z,99722.09
2024-05-09T02:43:46.018Z,99723.95
2024-05-09T02:48:49.025Z,99723.80
2024-05-09T02:53:51.960Z,99726.01
2024-05-09T02:58:56.752Z,99720.58
2024-05-09T03:03:59.858Z,99726.25
2024-05-09T03:09:04.777Z,99725.14
2024-05-09T03:14:07.726Z,99721.36
2024-05-09T03:19:10.865Z,99714.09
2024-05-09T03:24:14.017Z,99717.90
2024-05-09T03:29:16.928Z,99724.35
2024-05-09T03:34:19.908Z,99733.23
2024-05-09T03:39:22.836Z,99735.13
2024-05-09T03:44:25.949Z,99732.51
2024-05-09T03:49:29.079Z,99735.04
2024-05-09T03:54:35.517Z,99738.33
2024-05-09T03:59:38.361Z,99743.39
2024-05-09T04:04:42.144Z,99750.50
2024-05-09T04:09:45.002Z,99746.95
2024-05-09T04:14:47.893Z,99745.92
2024-05-09T04:19:50.826Z,99749.13
2024-05-09T04:24:53.758Z,99753.94
2024-05-09T04:29:56.643Z,99755.26
2024-05-09T04:34:59.512Z,99756.47
2024-05-09T04:40:03.092Z,99760.39
2024-05-09T04:45:06.653Z,99770.13
2024-05-09T04:50:11.850Z,99772.00
2024-05-09T04:55:17.699Z,99774.79
2024-05-09T05:00:28.503Z,99781.02
2024-05-09T05:05:40.302Z,99782.95
2024-05-09T05:10:44.018Z,99790.02
2024-05-09T05:15:47.863Z,99793.12
2024-05-09T05:20:50.996Z,99797.27
2024-05-09T05:25:54.934Z,99792.91
2024-05-09T05:30:58.143Z,99792.64
2024-05-09T05:36:00.994Z,99792.52
2024-05-09T05:41:04.150Z,99799.58
2024-05-09T05:46:07.178Z,99795.52
2024-05-09T05:51:10.342Z,99794.92
2024-05-09T05:56:13.332Z,99797.41
2024-05-09T06:01:16.146Z,99795.61
2024-05-09T06:06:18.991Z,99797.58
2024-05-09T06:11:22.064Z,99795.20
2024-05-09T06:16:25.011Z,99797.16
2024-05-09T06:21:27.993Z,99799.41
2024-05-09T06:26:30.952Z,99806.13
2024-05-09T06:31:39.771Z,99806.77
2024-05-09T06:36:42.723Z,99804.85
2024-05-09T06:41:45.581Z,99799.69
2024-05-09T06:46:48.993Z,99793.86
2024-05-09T06:51:52.066Z,99791.27
2024-05-09T06:56:55.030Z,99790.08
2024-05-09T07:01:57.896Z,99789.73
2024-05-09T07:07:00.755Z,99787.23
2024-05-09T07:12:04.624Z,99792.02
2024-05-09T07:17:07.705Z,99788.81
2024-05-09T07:22:10.795Z,99785.61
2024-05-09T07:27:13.852Z,99783.14
2024-05-09T07:32:16.808Z,99783.40
2024-05-09T07:37:19.707Z,99786.30
2024-05-09T07:42:22.783Z,99784.77
2024-05-09T07:48:56.936Z,99780.86
2024-05-09T07:58:00.624Z,99775.44
2024-05-09T08:03:04.045Z,99774.64
2024-05-09T08:08:07.964Z,99774.98
2024-05-09T08:13:11.047Z,99773.36
2024-05-09T08:18:14.251Z,99773.80
2024-05-09T08:23:17.909Z,99776.15
2024-05-09T08:28:21.252Z,99776.98
2024-05-09T08:33:24.249Z,99776.58
2024-05-09T08:38:29.930Z,99776.77
2024-05-09T08:43:32.827Z,99775.10
2024-05-09T08:48:40.218Z,99770.94
2024-05-09T08:53:43.243Z,99775.39
2024-05-09T08:58:49.066Z,99764.87
2024-05-09T09:03:53.618Z,99765.58
2024-05-09T09:08:57.773Z,99761.68
2024-05-09T09:14:00.886Z,99755.80
2024-05-09T09:19:04.659Z,99754.16
2024-05-09T09:24:09.934Z,99755.31
2024-05-09T09:29:19.944Z,99753.91
2024-05-09T09:34:27.878Z,99756.29
2024-05-09T09:39:38.939Z,99756.75
2024-05-09T09:44:47.819Z,99755.58
2024-05-09T09:49:55.614Z,99751.65
2024-05-09T09:54:59.487Z,99749.38
2024-05-09T10:00:07.269Z,99750.84
2024-05-09T10:05:15.440Z,99742.61
2024-05-09T10:10:32.024Z,99742.34
2024-05-09T10:15:46.460Z,99743.10
2024-05-09T10:20:51.714Z,99741.84
2024-05-09T10:25:58.882Z,99738.55
2024-05-09T10:31:15.879Z,99742.43
2024-05-09T10:36:25.639Z,99733.26
2024-05-09T10:41:28.513Z,99734.05
2024-05-09T10:46:31.822Z,99732.30
2024-05-09T10:51:35.608Z,99720.12
2024-05-09T10:56:38.635Z,99717.92
2024-05-09T11:01:41.740Z,99715.95
2024-05-09T11:06:46.461Z,99720.13
2024-05-09T11:11:49.749Z,99715.46
2024-05-09T11:17:05.673Z,99708.54
2024-05-09T11:22:08.944Z,99703.78
2024-05-09T11:27:12.765Z,99697.14
2024-05-09T11:32:16.584Z,99694.11
2024-05-09T11:37:19.845Z,99691.08
2024-05-09T11:42:22.782Z,99689.73
2024-05-09T11:47:25.859Z,99685.30
2024-05-09T11:52:28.837Z,99677.90
2024-05-09T11:57:32.174Z,99678.19
2024-05-09T12:02:35.080Z,99675.96
2024-05-09T12:07:37.954Z,99670.17
2024-05-09T12:12:40.914Z,99665.02
2024-05-09T12:17:44.853Z,99666.26
2024-05-09T12:22:48.606Z,99662.84
2024-05-09T12:27:51.882Z,99656.32
2024-05-09T12:32:54.920Z,99649.67
2024-05-09T12:37:57.878Z,99648.98
2024-05-09T12:43:00.873Z,99650.35
2024-05-09T12:48:06.882Z,99648.02
2024-05-09T12:53:10.091Z,99640.52
2024-05-09T12:58:13.711Z,99630.73
2024-05-09T13:03:16.807Z,99625.05
2024-05-09T13:08:20.390Z,99625.14
2024-05-09T13:13:23.415Z,99615.99
2024-05-09T13:18:26.251Z,99614.16
2024-05-09T13:23:29.314Z,99614.52
2024-05-09T13:28:33.580Z,99612.91
2024-05-09T13:33:36.648Z,99603.67
2024-05-09T13:38:39.636Z,99594.10
2024-05-09T13:43:42.525Z,99590.34
2024-05-09T13:48:46.167Z,99588.00
2024-05-09T13:53:49.103Z,99583.14
2024-05-09T13:58:52.310Z,99578.59
2024-05-09T14:03:55.401Z,99574.98
2024-05-09T14:08:58.531Z,99574.45
2024-05-09T14:14:01.987Z,99570.11
2024-05-09T14:19:05.047Z,99569.94
2024-05-09T14:24:08.246Z,99568.16
2024-05-09T14:29:11.161Z,99562.02
2024-05-09T14:34:14.342Z,99560.64
2024-05-09T14:39:17.375Z,99560.59
2024-05-09T14:44:20.435Z,99556.16
2024-05-09T14:49:23.310Z,99551.21
2024-05-09T14:54:26.130Z,99551.92
2024-05-09T14:59:29.013Z,99548.20
2024-05-09T15:04:32.152Z,99543.09
2024-05-09T15:09:36.120Z,99548.60
2024-05-09T15:14:39.007Z,99547.38
2024-05-09T15:19:42.119Z,99542.61
2024-05-09T15:24:46.613Z,99538.08
2024-05-09T15:29:49.484Z,99532.34
2024-05-09T15:34:52.591Z,99527.91
2024-05-09T15:39:55.509Z,99526.61
2024-05-09T15:44:58.635Z,99523.48
2024-05-09T15:50:01.660Z,99521.48
2024-05-09T15:55:05.702Z,99517.96
2024-05-09T16:00:15.243Z,99513.08
2024-05-09T16:05:24.979Z,99510.83
2024-05-09T16:10:32.648Z,99513.57
2024-05-09T16:15:37.121Z,99517.75
2024-05-09T16:20:42.292Z,99510.94
2024-05-09T16:25:48.080Z,99507.73
2024-05-09T16:30:51.546Z,99511.91
2024-05-09T16:35:54.499Z,99512.65
2024-05-09T16:40:57.481Z,99515.16
2024-05-09T16:46:01.427Z,99514.16
2024-05-09T16:51:05.019Z,99509.48
2024-05-09T16:56:08.222Z,99507.76
2024-05-09T17:01:13.630Z,99505.24
2024-05-09T17:06:17.185Z,99507.60
2024-05-09T17:11:20.209Z,99504.75
2024-05-09T17:16:23.263Z,99505.52
2024-05-09T17:21:26.413Z,99505.23
2024-05-09T17:26:30.993Z,99509.80
2024-05-09T17:31:34.021Z,99506.47
2024-05-09T17:36:37.197Z,99501.68
2024-05-09T17:41:40.184Z,99500.92
2024-05-09T17:46:43.127Z,99497.20
2024-05-09T17:51:55.543Z,99496.52
2024-05-09T17:56:58.832Z,99501.73
2024-05-09T18:02:02.175Z,99510.14
2024-05-09T18:07:05.730Z,99509.63
2024-05-09T18:12:08.850Z,99511.71
2024-05-09T18:17:13.347Z,99519.66
2024-05-09T18:22:16.439Z,99524.68
2024-05-09T18:27:19.377Z,99531.77
2024-05-09T18:32:22.323Z,99541.43
2024-05-09T18:37:25.504Z,99548.11
2024-05-09T18:42:28.479Z,99550.63
2024-05-09T18:47:32.199Z,99556.04
2024-05-09T18:52:35.115Z,99564.60
2024-05-09T18:57:37.968Z,99570.19
2024-05-09T19:02:41.028Z,99573.63
2024-05-09T19:07:44.409Z,99582.73
2024-05-09T19:12:47.441Z,99580.77
2024-05-09T19:17:50.543Z,99583.46
2024-05-09T19:22:53.548Z,99584.08
2024-05-09T19:27:56.703Z,99581.77
2024-05-09T19:32:59.904Z,99585.64
2024-05-09T19:38:03.718Z,99593.75
2024-05-09T19:43:07.119Z,99594.84
2024-05-09T19:48:10.724Z,99596.36
2024-05-09T19:53:14.518Z,99597.05
2024-05-09T19:58:18.446Z,99599.02
2024-05-09T20:03:21.590Z,99601.21
2024-05-09T20:08:24.985Z,99606.47
2024-05-09T20:13:28.109Z,99609.33
2024-05-09T20:18:31.311Z,99610.88
2024-05-09T20:23:34.305Z,99618.61
2024-05-09T20:28:37.601Z,99618.38
2024-05-09T20:33:40.791Z,99613.55
2024-05-09T20:38:43.914Z,99613.52
2024-05-09T20:43:52.071Z,99616.86
2024-05-09T20:48:59.485Z,99614.10
2024-05-09T20:54:03.388Z,99611.20
2024-05-09T20:59:11.082Z,99610.96
2024-05-09T21:04:16.153Z,99612.52
2024-05-09T21:09:25.521Z,99606.75
2024-05-09T21:14:28.737Z,99613.74
2024-05-09T21:19:31.632Z,99614.63
2024-05-09T21:24:34.598Z,99615.58
2024-05-09T21:29:37.517Z,99615.43
2024-05-09T21:34:40.513Z,99617.83
2024-05-09T21:39:43.683Z,99617.91
2024-05-09T21:44:46.655Z,99619.55
2024-05-09T21:49:49.779Z,99616.88
2024-05-09T21:54:52.790Z,99613.50
2024-05-09T21:59:55.775Z,99616.30
2024-05-09T22:04:59.811Z,99619.42
2024-05-09T22:10:10.073Z,99619.70
2024-05-09T22:15:21.078Z,99620.73
2024-05-09T22:20:32.879Z,99623.24
2024-05-09T22:25:39.509Z,99622.77
2024-05-09T22:30:44.023Z,99622.16
2024-05-09T22:35:48.038Z,99618.45
2024-05-09T22:40:52.207Z,99614.45
2024-05-09T22:45:55.707Z,99613.56
2024-05-09T22:50:59.085Z,99615.34
2024-05-09T22:56:02.551Z,99615.91
2024-05-09T23:01:05.848Z,99612.00
2024-05-09T23:06:08.950Z,99613.84
2024-05-09T23:11:11.981Z,99613.20
2024-05-09T23:16:14.994Z,99613.10
2024-05-09T23:21:18.069Z,99611.82
2024-05-09T23:26:20.973Z,99615.52
2024-05-09T23:31:24.064Z,99615.64
2024-05-09T23:36:29.075Z,99618.52
2024-05-09T23:41:32.136Z,99620.02
2024-05-09T23:46:35.410Z,99624.10
2024-05-09T23:51:38.364Z,99620.21
2024-05-09T23:56:41.278Z,99620.70
